createdAt,value
2023-05-09T00:01:11.743Z,10.52
2023-05-09T00:03:44.187Z,10.52
2023-05-09T00:06:17.440Z,10.52
2023-05-09T00:08:49.260Z,10.52
2023-05-09T00:11:21.876Z,10.49
2023-05-09T00:13:53.646Z,10.52
2023-05-09T00:16:25.395Z,10.47
2023-05-09T00:18:57.916Z,10.43
2023-05-09T00:21:30.302Z,10.41
2023-05-09T00:24:02.089Z,10.41
2023-05-09T00:26:33.907Z,10.38
2023-05-09T00:29:06.040Z,10.39
2023-05-09T00:31:37.928Z,10.35
2023-05-09T00:34:09.688Z,10.36
2023-05-09T00:36:41.978Z,10.36
2023-05-09T00:39:14.260Z,10.37
2023-05-09T00:41:45.965Z,10.30
2023-05-09T00:44:17.786Z,10.24
2023-05-09T00:46:49.584Z,10.16
2023-05-09T00:49:21.854Z,10.17
2023-05-09T00:51:55.548Z,10.15
2023-05-09T00:54:27.626Z,10.14
2023-05-09T00:56:59.307Z,10.14
2023-05-09T00:59:31.042Z,10.09
2023-05-09T01:02:02.815Z,10.04
2023-05-09T01:04:34.820Z,9.96
2023-05-09T01:07:12.544Z,9.96
2023-05-09T01:09:52.588Z,9.93
2023-05-09T01:12:32.496Z,9.91
2023-05-09T01:15:11.720Z,9.87
2023-05-09T01:17:51.072Z,9.83
2023-05-09T01:20:30.534Z,9.83
2023-05-09T01:23:20.789Z,9.82
2023-05-09T01:26:03.046Z,9.82
2023-05-09T01:29:03.469Z,9.82
2023-05-09T01:31:39.230Z,9.79
2023-05-09T01:34:15.296Z,9.77
2023-05-09T01:36:51.040Z,9.75
2023-05-09T01:39:25.449Z,9.68
2023-05-09T01:42:01.985Z,9.61
2023-05-09T01:44:38.277Z,9.58
2023-05-09T01:47:10.679Z,9.60
2023-05-09T01:49:44.501Z,9.61
2023-05-09T01:52:20.086Z,9.59
2023-05-09T01:54:53.721Z,9.54
2023-05-09T01:57:27.063Z,9.53
2023-05-09T02:00:00.746Z,9.50
2023-05-09T02:02:33.656Z,9.45
2023-05-09T02:05:06.292Z,9.39
2023-05-09T02:07:39.332Z,9.39
2023-05-09T02:10:13.071Z,9.35
2023-05-09T02:12:46.424Z,9.31
2023-05-09T02:15:19.148Z,9.32
2023-05-09T02:17:50.950Z,9.30
2023-05-09T02:20:23.025Z,9.28
2023-05-09T02:22:55.409Z,9.29
2023-05-09T02:25:27.115Z,9.25
2023-05-09T02:28:00.063Z,9.22
2023-05-09T02:30:37.750Z,9.25
2023-05-09T02:33:12.711Z,9.22
2023-05-09T02:35:47.484Z,9.16
2023-05-09T02:38:19.559Z,9.07
2023-05-09T02:40:52.828Z,9.04
2023-05-09T02:43:24.523Z,8.99
2023-05-09T02:45:56.359Z,8.98
2023-05-09T02:48:28.049Z,9.02
2023-05-09T02:50:59.828Z,9.05
2023-05-09T02:53:31.513Z,9.05
2023-05-09T02:56:03.916Z,9.05
2023-05-09T02:58:35.707Z,9.06
2023-05-09T03:01:07.696Z,9.05
2023-05-09T03:03:39.561Z,9.04
2023-05-09T03:06:11.875Z,8.99
2023-05-09T03:08:43.702Z,8.88
2023-05-09T03:11:15.736Z,8.76
2023-05-09T03:13:47.823Z,8.80
2023-05-09T03:16:21.117Z,8.79
2023-05-09T03:18:53.161Z,8.82
2023-05-09T03:21:25.001Z,8.80
2023-05-09T03:23:56.916Z,8.80
2023-05-09T03:26:28.702Z,8.75
2023-05-09T03:29:00.527Z,8.74
2023-05-09T03:31:32.759Z,8.73
2023-05-09T03:34:04.599Z,8.78
2023-05-09T03:36:36.276Z,8.66
2023-05-09T03:39:09.933Z,8.65
2023-05-09T03:41:44.100Z,8.63
2023-05-09T03:44:15.962Z,8.63
2023-05-09T03:46:47.717Z,8.66
2023-05-09T03:49:19.599Z,8.73
2023-05-09T03:51:51.996Z,8.66
2023-05-09T03:54:23.798Z,8.70
2023-05-09T03:56:56.047Z,8.77
2023-05-09T03:59:28.234Z,8.80
2023-05-09T04:02:00.679Z,8.83
2023-05-09T04:04:32.900Z,8.88
2023-05-09T04:07:04.053Z,8.92
2023-05-09T04:09:36.192Z,8.90
2023-05-09T04:12:08.718Z,8.90
2023-05-09T04:14:40.852Z,8.97
2023-05-09T04:17:12.758Z,9.00
2023-05-09T04:19:44.535Z,9.01
2023-05-09T04:22:16.307Z,9.01
2023-05-09T04:24:48.227Z,9.04
2023-05-09T04:27:20.009Z,9.03
2023-05-09T04:29:53.546Z,9.09
2023-05-09T04:32:26.962Z,9.06
2023-05-09T04:34:59.654Z,9.10
2023-05-09T04:37:34.582Z,9.14
2023-05-09T04:40:09.129Z,9.11
2023-05-09T04:42:45.230Z,9.15
2023-05-09T04:45:17.243Z,9.20
2023-05-09T04:47:49.291Z,9.26
2023-05-09T04:50:21.110Z,9.31
2023-05-09T04:52:53.392Z,9.38
2023-05-09T04:55:26.291Z,9.42
2023-05-09T04:57:58.640Z,9.45
2023-05-09T05:00:31.092Z,9.42
2023-05-09T05:03:03.452Z,9.48
2023-05-09T05:05:37.421Z,9.55
2023-05-09T05:08:10.220Z,9.61
2023-05-09T05:10:43.980Z,9.68
2023-05-09T05:13:17.470Z,9.69
2023-05-09T05:15:51.763Z,9.69
2023-05-09T05:18:25.019Z,9.74
2023-05-09T05:20:56.936Z,9.77
2023-05-09T05:23:28.784Z,9.83
2023-05-09T05:26:00.893Z,9.92
2023-05-09T05:28:33.068Z,9.99
2023-05-09T05:31:05.010Z,10.05
2023-05-09T05:33:37.374Z,10.11
2023-05-09T05:36:08.917Z,10.12
2023-05-09T05:38:40.735Z,10.19
2023-05-09T05:41:12.951Z,10.26
2023-05-09T05:43:45.385Z,10.30
2023-05-09T05:46:18.856Z,10.35
2023-05-09T05:48:51.138Z,10.45
2023-05-09T05:51:22.940Z,10.55
2023-05-09T05:53:54.666Z,10.62
2023-05-09T05:56:27.618Z,10.67
2023-05-09T05:59:00.794Z,10.75
2023-05-09T06:01:33.112Z,10.84
2023-05-09T06:04:05.059Z,10.90
2023-05-09T06:06:38.193Z,10.97
2023-05-09T06:09:10.038Z,10.99
2023-05-09T06:11:41.743Z,11.05
2023-05-09T06:14:13.601Z,11.12
2023-05-09T06:16:45.818Z,11.17
2023-05-09T06:19:17.542Z,11.24
2023-05-09T06:21:49.281Z,11.27
2023-05-09T06:24:34.633Z,11.37
2023-05-09T06:27:08.636Z,11.47
2023-05-09T06:29:40.724Z,11.53
2023-05-09T06:32:12.442Z,11.57
2023-05-09T06:34:44.140Z,11.61
2023-05-09T06:37:15.861Z,11.66
2023-05-09T06:39:47.596Z,11.69
2023-05-09T06:42:19.249Z,11.75
2023-05-09T06:44:51.597Z,11.83
2023-05-09T06:47:23.398Z,11.91
2023-05-09T06:49:55.710Z,12.01
2023-05-09T06:52:27.482Z,12.06
2023-05-09T06:54:59.744Z,12.10
2023-05-09T06:57:31.657Z,12.14
2023-05-09T07:00:04.866Z,12.20
2023-05-09T07:02:37.078Z,12.21
2023-05-09T07:05:11.012Z,12.26
2023-05-09T07:07:43.010Z,12.30
2023-05-09T07:10:15.414Z,12.33
2023-05-09T07:12:47.175Z,12.39
2023-05-09T07:15:32.475Z,12.44
2023-05-09T07:18:09.204Z,12.48
2023-05-09T07:20:41.374Z,12.55
2023-05-09T07:23:13.213Z,12.61
2023-05-09T07:25:45.349Z,12.66
2023-05-09T07:28:17.135Z,12.71
2023-05-09T07:30:49.195Z,12.76
2023-05-09T07:33:21.375Z,12.81
2023-05-09T07:35:53.991Z,12.82
2023-05-09T07:38:26.375Z,12.91
2023-05-09T07:40:58.101Z,12.94
2023-05-09T07:43:29.963Z,13.05
2023-05-09T07:46:02.021Z,13.11
2023-05-09T07:48:33.838Z,13.15
2023-05-09T07:51:05.764Z,13.21
2023-05-09T07:53:37.534Z,13.23
2023-05-09T07:56:09.450Z,13.29
2023-05-09T07:58:41.196Z,13.33
2023-05-09T08:01:13.068Z,13.41
2023-05-09T08:03:45.185Z,13.42
2023-05-09T08:06:17.056Z,13.42
2023-05-09T08:08:49.647Z,13.45
2023-05-09T08:11:21.458Z,13.45
2023-05-09T08:13:53.702Z,13.48
2023-05-09T08:16:25.602Z,13.55
2023-05-09T08:18:58.051Z,13.58
2023-05-09T08:21:30.256Z,13.58
2023-05-09T08:24:02.010Z,13.63
2023-05-09T08:26:34.001Z,13.64
2023-05-09T08:29:05.913Z,13.67
2023-05-09T08:31:38.248Z,13.73
2023-05-09T08:34:10.535Z,13.85
2023-05-09T08:36:45.544Z,13.90
2023-05-09T08:39:17.592Z,13.93
2023-05-09T08:41:49.432Z,13.95
2023-05-09T08:44:23.420Z,14.00
2023-05-09T08:47:01.986Z,14.05
2023-05-09T08:49:34.590Z,14.11
2023-05-09T08:52:07.198Z,14.05
2023-05-09T08:54:37.526Z,14.08
2023-05-09T08:57:10.046Z,14.14
2023-05-09T08:59:43.396Z,14.23
2023-05-09T09:02:17.406Z,14.22
2023-05-09T09:04:50.082Z,14.27
2023-05-09T09:07:23.708Z,14.38
2023-05-09T09:09:56.760Z,14.43
2023-05-09T09:12:28.963Z,14.54
2023-05-09T09:15:05.875Z,14.60
2023-05-09T09:17:42.056Z,14.70
2023-05-09T09:20:17.444Z,14.74
2023-05-09T09:22:52.964Z,14.73
2023-05-09T09:25:24.631Z,14.70
2023-05-09T09:27:56.472Z,14.75
2023-05-09T09:30:29.287Z,14.83
2023-05-09T09:33:02.640Z,14.90
2023-05-09T09:35:43.491Z,14.98
2023-05-09T09:38:15.772Z,15.10
2023-05-09T09:40:56.052Z,15.24
2023-05-09T09:43:32.204Z,15.39
2023-05-09T09:46:05.899Z,15.50
2023-05-09T09:48:39.475Z,15.55
2023-05-09T09:51:12.619Z,15.64
2023-05-09T09:53:45.587Z,15.78
2023-05-09T09:56:17.271Z,15.85
2023-05-09T09:58:49.239Z,15.99
2023-05-09T10:01:21.069Z,16.17
2023-05-09T10:03:52.870Z,16.30
2023-05-09T10:06:24.553Z,16.44
2023-05-09T10:08:56.386Z,16.49
2023-05-09T10:11:28.205Z,16.60
2023-05-09T10:14:00.087Z,16.74
2023-05-09T10:16:43.174Z,16.86
2023-05-09T10:19:20.816Z,16.93
2023-05-09T10:21:55.878Z,17.00
2023-05-09T10:24:34.730Z,17.19
2023-05-09T10:27:11.038Z,17.31
2023-05-09T10:29:48.185Z,17.26
2023-05-09T10:32:25.663Z,17.23
2023-05-09T10:35:03.451Z,17.37
2023-05-09T10:37:36.460Z,17.44
2023-05-09T10:40:13.917Z,17.45
2023-05-09T10:42:46.353Z,17.62
2023-05-09T10:45:18.399Z,17.78
2023-05-09T10:47:52.934Z,17.77
2023-05-09T10:50:25.811Z,17.82
2023-05-09T10:53:16.992Z,17.82
2023-05-09T10:55:55.417Z,17.88
2023-05-09T10:58:33.520Z,17.90
2023-05-09T11:01:06.112Z,18.00
2023-05-09T11:03:57.923Z,18.19
2023-05-09T11:06:51.259Z,18.27
2023-05-09T11:09:36.219Z,18.45
2023-05-09T11:12:16.239Z,18.42
2023-05-09T11:14:50.182Z,18.46
2023-05-09T11:17:32.640Z,18.54
2023-05-09T11:20:06.660Z,18.69
2023-05-09T11:22:43.620Z,18.81
2023-05-09T11:25:17.006Z,18.81
2023-05-09T11:27:51.999Z,18.83
2023-05-09T11:30:24.147Z,18.83
2023-05-09T11:32:58.904Z,19.01
2023-05-09T11:35:31.334Z,18.92
2023-05-09T11:38:05.862Z,18.98
2023-05-09T11:40:38.259Z,18.91
2023-05-09T11:43:10.406Z,18.95
2023-05-09T11:45:44.142Z,18.95
2023-05-09T11:48:16.625Z,18.94
2023-05-09T11:50:50.090Z,19.02
2023-05-09T11:53:21.926Z,19.14
2023-05-09T11:55:55.563Z,19.25
2023-05-09T11:58:27.560Z,19.37
2023-05-09T12:01:00.053Z,19.54
2023-05-09T12:03:30.911Z,19.67
2023-05-09T12:06:03.426Z,19.69
2023-05-09T12:08:36.620Z,19.66
2023-05-09T12:11:13.917Z,19.72
2023-05-09T12:13:51.046Z,19.54
2023-05-09T12:16:23.196Z,19.54
2023-05-09T12:18:55.389Z,19.53
2023-05-09T12:21:28.438Z,19.54
2023-05-09T12:24:00.519Z,19.54
2023-05-09T12:26:33.016Z,19.57
2023-05-09T12:29:05.103Z,19.62
2023-05-09T12:31:37.277Z,19.62
2023-05-09T12:34:09.919Z,19.68
2023-05-09T12:36:50.422Z,19.59
2023-05-09T12:39:24.412Z,19.45
2023-05-09T12:42:01.707Z,19.62
2023-05-09T12:44:34.252Z,19.64
2023-05-09T12:47:06.642Z,19.79
2023-05-09T12:49:39.254Z,19.72
2023-05-09T12:52:17.391Z,19.68
2023-05-09T12:54:50.288Z,19.56
2023-05-09T12:57:28.790Z,19.62
2023-05-09T13:00:03.262Z,19.69
2023-05-09T13:02:39.145Z,19.64
2023-05-09T13:05:15.654Z,19.71
2023-05-09T13:07:49.693Z,19.79
2023-05-09T13:10:25.248Z,19.85
2023-05-09T13:12:57.301Z,19.92
2023-05-09T13:15:29.676Z,19.90
2023-05-09T13:18:01.483Z,19.92
2023-05-09T13:20:33.700Z,19.83
2023-05-09T13:23:06.379Z,19.83
2023-05-09T13:25:38.210Z,19.87
2023-05-09T13:28:10.280Z,19.91
2023-05-09T13:30:42.144Z,20.03
2023-05-09T13:33:25.223Z,20.13
2023-05-09T13:35:58.061Z,20.15
2023-05-09T13:38:30.910Z,20.23
2023-05-09T13:41:02.921Z,20.19
2023-05-09T13:43:34.845Z,20.32
2023-05-09T13:46:06.826Z,20.39
2023-05-09T13:48:39.679Z,20.51
2023-05-09T13:51:11.622Z,20.53
2023-05-09T13:53:43.475Z,20.47
2023-05-09T13:56:15.209Z,20.50
2023-05-09T13:58:47.203Z,20.56
2023-05-09T14:01:19.392Z,20.64
2023-05-09T14:03:51.481Z,20.73
2023-05-09T14:06:23.317Z,20.94
2023-05-09T14:08:55.200Z,21.03
2023-05-09T14:11:27.274Z,21.08
2023-05-09T14:13:59.142Z,21.23
2023-05-09T14:16:31.157Z,21.17
2023-05-09T14:19:03.093Z,21.19
2023-05-09T14:21:34.877Z,21.27
2023-05-09T14:24:07.770Z,21.33
2023-05-09T14:26:39.980Z,21.37
2023-05-09T14:29:11.920Z,21.27
2023-05-09T14:31:43.974Z,21.21
2023-05-09T14:34:15.943Z,21.49
2023-05-09T14:36:48.854Z,21.44
2023-05-09T14:39:21.746Z,21.47
2023-05-09T14:41:53.669Z,21.47
2023-05-09T14:44:26.450Z,21.57
2023-05-09T14:46:59.095Z,21.52
2023-05-09T14:49:30.950Z,21.63
2023-05-09T14:52:03.572Z,21.90
2023-05-09T14:54:34.730Z,22.17
2023-05-09T14:57:07.524Z,22.38
2023-05-09T14:59:39.403Z,22.27
2023-05-09T15:02:11.424Z,22.43
2023-05-09T15:04:43.917Z,22.43
2023-05-09T15:07:15.700Z,22.31
2023-05-09T15:09:47.465Z,22.33
2023-05-09T15:12:19.350Z,22.30
2023-05-09T15:14:53.850Z,22.56
2023-05-09T15:17:26.446Z,22.49
2023-05-09T15:19:56.789Z,22.68
2023-05-09T15:22:33.550Z,22.92
2023-05-09T15:25:06.422Z,22.97
2023-05-09T15:27:38.420Z,22.91
2023-05-09T15:30:12.161Z,22.57
2023-05-09T15:32:44.187Z,22.55
2023-05-09T15:35:18.403Z,22.62
2023-05-09T15:37:50.252Z,22.71
2023-05-09T15:40:22.005Z,22.71
2023-05-09T15:42:54.019Z,22.70
2023-05-09T15:45:25.766Z,23.02
2023-05-09T15:47:57.495Z,23.03
2023-05-09T15:50:29.294Z,23.10
2023-05-09T15:53:01.070Z,23.25
2023-05-09T15:55:33.851Z,23.15
2023-05-09T15:58:06.324Z,22.87
2023-05-09T16:00:38.071Z,22.55
2023-05-09T16:03:10.952Z,22.58
2023-05-09T16:05:43.312Z,22.44
2023-05-09T16:08:17.050Z,22.52
2023-05-09T16:10:49.147Z,22.50
2023-05-09T16:13:21.420Z,22.41
2023-05-09T16:15:53.859Z,22.64
2023-05-09T16:18:24.152Z,22.90
2023-05-09T16:20:56.255Z,22.94
2023-05-09T16:23:28.088Z,23.07
2023-05-09T16:26:00.363Z,23.07
2023-05-09T16:28:32.357Z,23.55
2023-05-09T16:31:05.518Z,23.56
2023-05-09T16:33:37.442Z,23.77
2023-05-09T16:36:09.919Z,23.83
2023-05-09T16:38:41.920Z,23.67
2023-05-09T16:41:14.105Z,23.31
2023-05-09T16:43:45.864Z,23.31
2023-05-09T16:46:17.744Z,23.44
2023-05-09T16:48:51.688Z,23.05
2023-05-09T16:51:24.129Z,22.53
2023-05-09T16:53:55.873Z,22.05
2023-05-09T16:56:27.885Z,21.57
2023-05-09T16:58:59.642Z,21.20
2023-05-09T17:01:31.662Z,21.00
2023-05-09T17:04:06.495Z,20.73
2023-05-09T17:06:38.251Z,20.56
2023-05-09T17:09:10.061Z,20.25
2023-05-09T17:11:41.757Z,19.94
2023-05-09T17:14:13.573Z,19.78
2023-05-09T17:16:45.421Z,19.64
2023-05-09T17:19:18.884Z,19.60
2023-05-09T17:21:50.745Z,19.46
2023-05-09T17:24:22.531Z,19.34
2023-05-09T17:26:54.948Z,19.27
2023-05-09T17:29:29.091Z,19.08
2023-05-09T17:32:01.586Z,19.09
2023-05-09T17:34:32.327Z,19.02
2023-05-09T17:37:05.799Z,18.96
2023-05-09T17:39:38.598Z,18.85
2023-05-09T17:42:12.194Z,18.80
2023-05-09T17:44:44.602Z,18.74
2023-05-09T17:47:16.917Z,18.67
2023-05-09T17:49:48.661Z,18.53
2023-05-09T17:52:23.203Z,18.47
2023-05-09T17:54:55.165Z,18.39
2023-05-09T17:57:27.370Z,18.32
2023-05-09T18:00:00.338Z,18.16
2023-05-09T18:02:32.073Z,18.14
2023-05-09T18:05:04.844Z,18.05
2023-05-09T18:07:35.033Z,17.93
2023-05-09T18:10:08.910Z,17.85
2023-05-09T18:12:40.814Z,17.74
2023-05-09T18:15:13.040Z,17.60
2023-05-09T18:17:48.219Z,17.49
2023-05-09T18:20:20.263Z,17.41
2023-05-09T18:22:53.733Z,17.33
2023-05-09T18:25:25.605Z,17.28
2023-05-09T18:27:58.321Z,17.27
2023-05-09T18:30:29.124Z,17.20
2023-05-09T18:33:02.873Z,17.14
2023-05-09T18:35:34.908Z,17.00
2023-05-09T18:38:06.856Z,16.97
2023-05-09T18:40:38.741Z,16.82
2023-05-09T18:43:10.680Z,16.79
2023-05-09T18:45:45.088Z,16.73
2023-05-09T18:48:17.367Z,16.70
2023-05-09T18:50:52.339Z,16.65
2023-05-09T18:53:25.992Z,16.59
2023-05-09T18:55:57.788Z,16.53
2023-05-09T18:58:29.558Z,16.50
2023-05-09T19:01:02.156Z,16.46
2023-05-09T19:03:33.068Z,16.37
2023-05-09T19:06:05.569Z,16.34
2023-05-09T19:08:37.273Z,16.25
2023-05-09T19:11:09.898Z,16.14
2023-05-09T19:13:48.433Z,16.11
2023-05-09T19:16:21.766Z,16.08
2023-05-09T19:18:55.112Z,16.05
2023-05-09T19:21:25.535Z,16.04
2023-05-09T19:23:57.598Z,15.98
2023-05-09T19:26:29.291Z,15.93
2023-05-09T19:29:04.081Z,15.87
2023-05-09T19:31:37.020Z,15.81
2023-05-09T19:34:08.226Z,15.76
2023-05-09T19:36:40.165Z,15.60
2023-05-09T19:39:12.151Z,15.57
2023-05-09T19:41:44.005Z,15.57
2023-05-09T19:44:16.050Z,15.51
2023-05-09T19:46:47.927Z,15.51
2023-05-09T19:49:19.827Z,15.49
2023-05-09T19:51:51.932Z,15.38
2023-05-09T19:54:26.986Z,15.38
2023-05-09T19:56:58.746Z,15.33
2023-05-09T19:59:31.650Z,15.26
2023-05-09T20:02:03.834Z,15.18
2023-05-09T20:04:38.601Z,15.11
2023-05-09T20:07:10.435Z,15.05
2023-05-09T20:09:42.231Z,14.97
2023-05-09T20:12:14.347Z,14.90
2023-05-09T20:14:46.179Z,14.84
2023-05-09T20:17:18.407Z,14.76
2023-05-09T20:19:53.211Z,14.68
2023-05-09T20:22:25.416Z,14.71
2023-05-09T20:24:57.514Z,14.65
2023-05-09T20:27:29.367Z,14.60
2023-05-09T20:30:01.146Z,14.55
2023-05-09T20:32:33.026Z,14.48
2023-05-09T20:35:05.431Z,14.44
2023-05-09T20:37:37.684Z,14.41
2023-05-09T20:40:11.627Z,14.42
2023-05-09T20:42:43.932Z,14.39
2023-05-09T20:45:15.781Z,14.39
2023-05-09T20:47:47.642Z,14.37
2023-05-09T20:50:19.910Z,14.36
2023-05-09T20:52:51.693Z,14.30
2023-05-09T20:55:23.921Z,14.26
2023-05-09T20:57:55.750Z,14.21
2023-05-09T21:00:28.004Z,14.15
2023-05-09T21:03:00.434Z,14.11
2023-05-09T21:05:32.304Z,14.03
2023-05-09T21:08:04.223Z,14.06
2023-05-09T21:10:35.924Z,13.99
2023-05-09T21:13:09.130Z,13.99
2023-05-09T21:15:40.908Z,13.96
2023-05-09T21:18:12.730Z,13.92
2023-05-09T21:20:45.472Z,13.97
2023-05-09T21:23:18.531Z,13.92
2023-05-09T21:25:50.596Z,13.88
2023-05-09T21:28:22.386Z,13.84
2023-05-09T21:30:54.703Z,13.82
2023-05-09T21:33:27.067Z,13.82
2023-05-09T21:35:59.254Z,13.77
2023-05-09T21:38:30.998Z,13.78
2023-05-09T21:41:02.795Z,13.76
2023-05-09T21:43:34.597Z,13.68
2023-05-09T21:46:08.110Z,13.69
2023-05-09T21:48:40.535Z,13.72
2023-05-09T21:51:12.483Z,13.65
2023-05-09T21:53:44.271Z,13.65
2023-05-09T21:56:16.106Z,13.64
2023-05-09T21:58:48.227Z,13.64
2023-05-09T22:01:21.261Z,13.63
2023-05-09T22:03:53.124Z,13.61
2023-05-09T22:06:25.562Z,13.62
2023-05-09T22:08:57.415Z,13.55
2023-05-09T22:11:29.210Z,13.52
2023-05-09T22:14:01.233Z,13.47
2023-05-09T22:16:33.169Z,13.40
2023-05-09T22:19:05.427Z,13.36
2023-05-09T22:21:37.156Z,13.34
2023-05-09T22:24:12.108Z,13.19
2023-05-09T22:26:44.047Z,13.11
2023-05-09T22:29:17.620Z,13.08
2023-05-09T22:31:49.384Z,13.10
2023-05-09T22:34:21.126Z,13.11
2023-05-09T22:36:54.418Z,13.14
2023-05-09T22:39:26.790Z,13.09
2023-05-09T22:41:58.444Z,13.06
2023-05-09T22:44:30.091Z,13.06
2023-05-09T22:47:01.730Z,12.97
2023-05-09T22:49:33.851Z,12.93
2023-05-09T22:52:05.743Z,12.90
2023-05-09T22:54:37.704Z,12.91
2023-05-09T22:57:09.482Z,12.87
2023-05-09T22:59:41.203Z,12.83
2023-05-09T23:02:13.396Z,12.78
2023-05-09T23:04:45.266Z,12.67
2023-05-09T23:07:16.957Z,12.70
2023-05-09T23:09:49.268Z,12.60
2023-05-09T23:12:21.204Z,12.66
2023-05-09T23:14:52.880Z,12.65
2023-05-09T23:17:24.708Z,12.62
2023-05-09T23:19:56.447Z,12.62
2023-05-09T23:22:28.241Z,12.58
2023-05-09T23:25:00.995Z,12.56
2023-05-09T23:27:31.768Z,12.54
2023-05-09T23:30:03.427Z,12.51
2023-05-09T23:32:35.133Z,12.40
2023-05-09T23:35:07.992Z,12.36
2023-05-09T23:37:39.846Z,12.25
2023-05-09T23:40:13.927Z,12.23
2023-05-09T23:42:46.234Z,12.26
2023-05-09T23:45:17.918Z,12.22
2023-05-09T23:47:49.928Z,12.24
2023-05-09T23:50:21.976Z,12.25
2023-05-09T23:52:53.667Z,12.24
2023-05-09T23:55:25.585Z,12.18
2023-05-09T23:57:57.511Z,12.15
